PWSweather.com
Personal Weather Stations
Station Observations
SPARKSRC
St. Petersburg, FL 33716

St. Petersburg, FL 33716

Lat: 27.876101, Lon: -82.657194

Elevation: 13

Station Type: Zephyr PWS-1000TD

Latest ConditionsUpdated 2:20:02 PM EDT Thursday, Apr 17, 2014
Currently Today's Max Today's Min Today's Average
Temperature 84.6°F29.2°C 85.6°F29.8°C 63.7°F17.6°C 69.6°F20.9°C
Dew Point 73.3°F22.9°C 73.5°F23.1°C 60.6°F15.9°C 64.6°F18.1°C
Winds 12.1 mph NE19.5 kmh NE 15.2 mph ENE24.5 kmh ENE - 9.1 mph 14.6 kmh
Wind Gusts 19.0 mph30.6 kmh 22.8 mph36.7 kmh - -
Humidity 69% 92% 66% 85%
Pressure 30.10 in1019.3 mb 30.14 in1020.7 mb 30.06 in1017.9 mb -
Hour Temp Dew Point Humidity Winds Wind Gusts Pressure Precip Precip Rate Daily Precip Total
02:20 PM 84.6°F29.2°C 73.3°F22.9°C 69% 12.1 mph NE19.5 kmh NE 19.0 mph30.6 kmh 30.10 in1019.3 mb 0.00 in0.0 mm 0.00 in/hr0.0 mm/hr 0.00 in0.0 mm
02:15 PM 84.6°F29.2°C 73.3°F22.9°C 69% 13.0 mph NE20.9 kmh NE 20.6 mph33.2 kmh 30.10 in1019.3 mb 0.00 in0.0 mm 0.00 in/hr0.0 mm/hr 0.00 in0.0 mm
02:10 PM 83.8°F28.8°C 72.6°F22.6°C 69% 9.2 mph NE14.8 kmh NE 20.6 mph33.2 kmh 30.11 in1019.6 mb 0.00 in0.0 mm 0.00 in/hr0.0 mm/hr 0.00 in0.0 mm
02:05 PM 84.7°F29.3°C 72.6°F22.6°C 67% 13.6 mph NE21.9 kmh NE 20.6 mph33.2 kmh 30.11 in1019.6 mb 0.00 in0.0 mm 0.00 in/hr0.0 mm/hr 0.00 in0.0 mm
02:00 PM 84.7°F29.3°C 73.5°F23.1°C 69% 8.3 mph NE13.4 kmh NE 21.3 mph34.3 kmh 30.10 in1019.3 mb 0.00 in0.0 mm 0.00 in/hr0.0 mm/hr 0.00 in0.0 mm
01:55 PM 85.3°F29.6°C 72.7°F22.6°C 66% 14.5 mph NE23.3 kmh NE 21.3 mph34.3 kmh 30.10 in1019.3 mb 0.00 in0.0 mm 0.00 in/hr0.0 mm/hr 0.00 in0.0 mm
01:50 PM 84.9°F29.4°C 73.2°F22.9°C 68% 12.1 mph ENE19.5 kmh ENE 19.7 mph31.7 kmh 30.10 in1019.3 mb 0.00 in0.0 mm 0.00 in/hr0.0 mm/hr 0.00 in0.0 mm
01:45 PM 84.9°F29.4°C 73.2°F22.9°C 68% 12.1 mph ENE19.5 kmh ENE 22.1 mph35.6 kmh 30.11 in1019.6 mb 0.00 in0.0 mm 0.00 in/hr0.0 mm/hr 0.00 in0.0 mm
01:40 PM 85.6°F29.8°C 73.0°F22.8°C 66% 12.1 mph NE19.5 kmh NE 22.1 mph35.6 kmh 30.11 in1019.6 mb 0.00 in0.0 mm 0.00 in/hr0.0 mm/hr 0.00 in0.0 mm
01:35 PM 85.5°F29.7°C 73.3°F22.9°C 67% 13.6 mph NE21.9 kmh NE 22.1 mph35.6 kmh 30.10 in1019.3 mb 0.00 in0.0 mm 0.00 in/hr0.0 mm/hr 0.00 in0.0 mm
01:30 PM 84.2°F29.0°C 73.0°F22.8°C 69% 10.7 mph NE17.2 kmh NE 20.6 mph33.2 kmh 30.11 in1019.6 mb 0.00 in0.0 mm 0.00 in/hr0.0 mm/hr 0.00 in0.0 mm
01:25 PM 84.0°F28.9°C 73.2°F22.9°C 70% 9.8 mph NE15.8 kmh NE 19.0 mph30.6 kmh 30.11 in1019.6 mb 0.00 in0.0 mm 0.00 in/hr0.0 mm/hr 0.00 in0.0 mm
01:20 PM 84.6°F29.2°C 72.5°F22.5°C 67% 11.4 mph NE18.3 kmh NE 19.0 mph30.6 kmh 30.11 in1019.6 mb 0.00 in0.0 mm 0.00 in/hr0.0 mm/hr 0.00 in0.0 mm
01:15 PM 84.4°F29.1°C 72.7°F22.6°C 68% 10.7 mph ENE17.2 kmh ENE 18.3 mph29.5 kmh 30.11 in1019.6 mb 0.00 in0.0 mm 0.00 in/hr0.0 mm/hr 0.00 in0.0 mm
01:10 PM 83.8°F28.8°C 72.6°F22.6°C 69% 8.3 mph ENE13.4 kmh ENE 18.3 mph29.5 kmh 30.11 in1019.6 mb 0.00 in0.0 mm 0.00 in/hr0.0 mm/hr 0.00 in0.0 mm
01:05 PM 83.1°F28.4°C 72.0°F22.2°C 69% 13.0 mph ENE20.9 kmh ENE 18.3 mph29.5 kmh 30.12 in1020.0 mb 0.00 in0.0 mm 0.00 in/hr0.0 mm/hr 0.00 in0.0 mm
01:00 PM 82.9°F28.3°C 71.8°F22.1°C 69% 10.7 mph ENE17.2 kmh ENE 18.3 mph29.5 kmh 30.12 in1020.0 mb 0.00 in0.0 mm 0.00 in/hr0.0 mm/hr 0.00 in0.0 mm
12:55 PM 83.5°F28.6°C 71.9°F22.2°C 68% 11.4 mph E18.3 kmh E 18.3 mph29.5 kmh 30.12 in1020.0 mb 0.00 in0.0 mm 0.00 in/hr0.0 mm/hr 0.00 in0.0 mm
12:50 PM 83.5°F28.6°C 72.3°F22.4°C 69% 9.8 mph ENE15.8 kmh ENE 15.9 mph25.6 kmh 30.12 in1020.0 mb 0.00 in0.0 mm 0.00 in/hr0.0 mm/hr 0.00 in0.0 mm
12:45 PM 82.8°F28.2°C 72.0°F22.2°C 70% 8.3 mph ENE13.4 kmh ENE 20.6 mph33.2 kmh 30.13 in1020.3 mb 0.00 in0.0 mm 0.00 in/hr0.0 mm/hr 0.00 in0.0 mm
12:40 PM 82.0°F27.8°C 71.8°F22.1°C 71% 10.7 mph E17.2 kmh E 20.6 mph33.2 kmh 30.13 in1020.3 mb 0.00 in0.0 mm 0.00 in/hr0.0 mm/hr 0.00 in0.0 mm
12:35 PM 82.6°F28.1°C 71.9°F22.2°C 70% 12.1 mph E19.5 kmh E 19.7 mph31.7 kmh 30.12 in1020.0 mb 0.00 in0.0 mm 0.00 in/hr0.0 mm/hr 0.00 in0.0 mm
12:30 PM 82.2°F27.9°C 71.5°F21.9°C 70% 10.7 mph E17.2 kmh E 19.7 mph31.7 kmh 30.13 in1020.3 mb 0.00 in0.0 mm 0.00 in/hr0.0 mm/hr 0.00 in0.0 mm
12:25 PM 82.2°F27.9°C 71.5°F21.9°C 70% 12.1 mph ENE19.5 kmh ENE 21.3 mph34.3 kmh 30.13 in1020.3 mb 0.00 in0.0 mm 0.00 in/hr0.0 mm/hr 0.00 in0.0 mm
12:20 PM 81.9°F27.7°C 71.6°F22.0°C 71% 12.1 mph NE19.5 kmh NE 21.3 mph34.3 kmh 30.13 in1020.3 mb 0.00 in0.0 mm 0.00 in/hr0.0 mm/hr 0.00 in0.0 mm
12:15 PM 81.9°F27.7°C 71.2°F21.8°C 70% 15.2 mph ENE24.5 kmh ENE 22.8 mph36.7 kmh 30.13 in1020.3 mb 0.00 in0.0 mm 0.00 in/hr0.0 mm/hr 0.00 in0.0 mm
12:10 PM 81.9°F27.7°C 71.6°F22.0°C 71% 9.8 mph ENE15.8 kmh ENE 22.8 mph36.7 kmh 30.14 in1020.7 mb 0.00 in0.0 mm 0.00 in/hr0.0 mm/hr 0.00 in0.0 mm
12:05 PM 81.7°F27.6°C 71.4°F21.9°C 71% 13.0 mph NE20.9 kmh NE 22.1 mph35.6 kmh 30.13 in1020.3 mb 0.00 in0.0 mm 0.00 in/hr0.0 mm/hr 0.00 in0.0 mm
12:00 PM 81.5°F27.5°C 70.8°F21.6°C 70% 13.6 mph NE21.9 kmh NE 22.1 mph35.6 kmh 30.13 in1020.3 mb 0.00 in0.0 mm 0.00 in/hr0.0 mm/hr 0.00 in0.0 mm
11:55 AM 81.1°F27.3°C 70.9°F21.6°C 71% 12.1 mph NE19.5 kmh NE 22.1 mph35.6 kmh 30.13 in1020.3 mb 0.00 in0.0 mm 0.00 in/hr0.0 mm/hr 0.00 in0.0 mm
11:50 AM 80.6°F27.0°C 70.8°F21.6°C 72% 9.2 mph ENE14.8 kmh ENE 17.4 mph28.0 kmh 30.13 in1020.3 mb 0.00 in0.0 mm 0.00 in/hr0.0 mm/hr 0.00 in0.0 mm
11:45 AM 79.3°F26.3°C 70.4°F21.3°C 74% 10.7 mph ENE17.2 kmh ENE 17.4 mph28.0 kmh 30.13 in1020.3 mb 0.00 in0.0 mm 0.00 in/hr0.0 mm/hr 0.00 in0.0 mm
11:40 AM 78.6°F25.9°C 70.1°F21.2°C 75% 9.2 mph NE14.8 kmh NE 17.4 mph28.0 kmh 30.13 in1020.3 mb 0.00 in0.0 mm 0.00 in/hr0.0 mm/hr 0.00 in0.0 mm
11:35 AM 77.5°F25.3°C 69.8°F21.0°C 77% 12.1 mph ENE19.5 kmh ENE 17.4 mph28.0 kmh 30.14 in1020.7 mb 0.00 in0.0 mm 0.00 in/hr0.0 mm/hr 0.00 in0.0 mm
11:30 AM 76.6°F24.8°C 68.6°F20.3°C 76% 8.3 mph ENE13.4 kmh ENE 21.3 mph34.3 kmh 30.14 in1020.7 mb 0.00 in0.0 mm 0.00 in/hr0.0 mm/hr 0.00 in0.0 mm
11:25 AM 77.2°F25.1°C 68.3°F20.2°C 74% 13.0 mph NE20.9 kmh NE 21.3 mph34.3 kmh 30.14 in1020.7 mb 0.00 in0.0 mm 0.00 in/hr0.0 mm/hr 0.00 in0.0 mm
11:20 AM 77.7°F25.4°C 68.8°F20.4°C 74% 11.4 mph NE18.3 kmh NE 21.3 mph34.3 kmh 30.14 in1020.7 mb 0.00 in0.0 mm 0.00 in/hr0.0 mm/hr 0.00 in0.0 mm
11:15 AM 77.9°F25.5°C 69.0°F20.6°C 74% 7.6 mph NE12.2 kmh NE 20.6 mph33.2 kmh 30.14 in1020.7 mb 0.00 in0.0 mm 0.00 in/hr0.0 mm/hr 0.00 in0.0 mm
11:10 AM 77.7°F25.4°C 68.8°F20.4°C 74% 13.0 mph NE20.9 kmh NE 20.6 mph33.2 kmh 30.14 in1020.7 mb 0.00 in0.0 mm 0.00 in/hr0.0 mm/hr 0.00 in0.0 mm
11:05 AM 76.8°F24.9°C 68.3°F20.2°C 75% 12.1 mph NE19.5 kmh NE 21.3 mph34.3 kmh 30.14 in1020.7 mb 0.00 in0.0 mm 0.00 in/hr0.0 mm/hr 0.00 in0.0 mm
11:00 AM 76.8°F24.9°C 68.3°F20.2°C 75% 9.2 mph NE14.8 kmh NE 22.1 mph35.6 kmh 30.14 in1020.7 mb 0.00 in0.0 mm 0.00 in/hr0.0 mm/hr 0.00 in0.0 mm
10:55 AM 77.0°F25.0°C 68.5°F20.3°C 75% 10.7 mph NE17.2 kmh NE 22.1 mph35.6 kmh 30.14 in1020.7 mb 0.00 in0.0 mm 0.00 in/hr0.0 mm/hr 0.00 in0.0 mm
10:50 AM 76.8°F24.9°C 69.1°F20.6°C 77% 9.2 mph NE14.8 kmh NE 19.0 mph30.6 kmh 30.14 in1020.7 mb 0.00 in0.0 mm 0.00 in/hr0.0 mm/hr 0.00 in0.0 mm
10:45 AM 75.9°F24.4°C 67.9°F19.9°C 76% 12.1 mph NE19.5 kmh NE 19.0 mph30.6 kmh 30.14 in1020.7 mb 0.00 in0.0 mm 0.00 in/hr0.0 mm/hr 0.00 in0.0 mm
10:40 AM 75.0°F23.9°C 68.5°F20.3°C 80% 9.8 mph NE15.8 kmh NE 19.0 mph30.6 kmh 30.14 in1020.7 mb 0.00 in0.0 mm 0.00 in/hr0.0 mm/hr 0.00 in0.0 mm
10:35 AM 73.6°F23.1°C 68.1°F20.1°C 83% 6.9 mph NE11.1 kmh NE 19.0 mph30.6 kmh 30.14 in1020.7 mb 0.00 in0.0 mm 0.00 in/hr0.0 mm/hr 0.00 in0.0 mm
10:30 AM 72.5°F22.5°C 67.1°F19.5°C 83% 9.8 mph NE15.8 kmh NE 15.2 mph24.5 kmh 30.14 in1020.7 mb 0.00 in0.0 mm 0.00 in/hr0.0 mm/hr 0.00 in0.0 mm
10:25 AM 72.1°F22.3°C 66.7°F19.3°C 83% 9.2 mph NE14.8 kmh NE 14.5 mph23.3 kmh 30.14 in1020.7 mb 0.00 in0.0 mm 0.00 in/hr0.0 mm/hr 0.00 in0.0 mm
10:20 AM 71.6°F22.0°C 66.9°F19.4°C 85% 7.6 mph NE12.2 kmh NE 14.5 mph23.3 kmh 30.14 in1020.7 mb 0.00 in0.0 mm 0.00 in/hr0.0 mm/hr 0.00 in0.0 mm
10:15 AM 70.9°F21.6°C 66.5°F19.2°C 86% 6.9 mph NE11.1 kmh NE 14.5 mph23.3 kmh 30.14 in1020.7 mb 0.00 in0.0 mm 0.00 in/hr0.0 mm/hr 0.00 in0.0 mm
10:10 AM 70.5°F21.4°C 66.2°F19.0°C 86% 8.3 mph NE13.4 kmh NE 13.6 mph21.9 kmh 30.14 in1020.7 mb 0.00 in0.0 mm 0.00 in/hr0.0 mm/hr 0.00 in0.0 mm
10:05 AM 70.2°F21.2°C 66.1°F18.9°C 87% 6.0 mph NE9.7 kmh NE 14.5 mph23.3 kmh 30.14 in1020.7 mb 0.00 in0.0 mm 0.00 in/hr0.0 mm/hr 0.00 in0.0 mm
10:00 AM 69.8°F21.0°C 65.8°F18.8°C 87% 9.2 mph NE14.8 kmh NE 15.9 mph25.6 kmh 30.13 in1020.3 mb 0.00 in0.0 mm 0.00 in/hr0.0 mm/hr 0.00 in0.0 mm
09:55 AM 69.6°F20.9°C 65.6°F18.7°C 87% 8.3 mph NNE13.4 kmh NNE 15.9 mph25.6 kmh 30.13 in1020.3 mb 0.00 in0.0 mm 0.00 in/hr0.0 mm/hr 0.00 in0.0 mm
09:50 AM 69.6°F20.9°C 65.6°F18.7°C 87% 10.7 mph NNE17.2 kmh NNE 15.9 mph25.6 kmh 30.14 in1020.7 mb 0.00 in0.0 mm 0.00 in/hr0.0 mm/hr 0.00 in0.0 mm
09:45 AM 69.4°F20.8°C 65.8°F18.8°C 88% 9.8 mph NE15.8 kmh NE 14.5 mph23.3 kmh 30.13 in1020.3 mb 0.00 in0.0 mm 0.00 in/hr0.0 mm/hr 0.00 in0.0 mm
09:40 AM 69.4°F20.8°C 65.8°F18.8°C 88% 6.0 mph NE9.7 kmh NE 16.8 mph27.0 kmh 30.13 in1020.3 mb 0.00 in0.0 mm 0.00 in/hr0.0 mm/hr 0.00 in0.0 mm
09:35 AM 69.4°F20.8°C 65.4°F18.6°C 87% 7.6 mph NNE12.2 kmh NNE 16.8 mph27.0 kmh 30.13 in1020.3 mb 0.00 in0.0 mm 0.00 in/hr0.0 mm/hr 0.00 in0.0 mm
09:30 AM 69.6°F20.9°C 65.9°F18.8°C 88% 6.0 mph NE9.7 kmh NE 14.5 mph23.3 kmh 30.12 in1020.0 mb 0.00 in0.0 mm 0.00 in/hr0.0 mm/hr 0.00 in0.0 mm
09:25 AM 69.3°F20.7°C 65.6°F18.7°C 88% 8.3 mph NE13.4 kmh NE 14.5 mph23.3 kmh 30.12 in1020.0 mb 0.00 in0.0 mm 0.00 in/hr0.0 mm/hr 0.00 in0.0 mm
09:20 AM 69.1°F20.6°C 65.4°F18.6°C 88% 5.4 mph NE8.7 kmh NE 16.8 mph27.0 kmh 30.12 in1020.0 mb 0.00 in0.0 mm 0.00 in/hr0.0 mm/hr 0.00 in0.0 mm
09:15 AM 69.1°F20.6°C 65.4°F18.6°C 88% 9.2 mph NE14.8 kmh NE 16.8 mph27.0 kmh 30.12 in1020.0 mb 0.00 in0.0 mm 0.00 in/hr0.0 mm/hr 0.00 in0.0 mm
09:10 AM 68.7°F20.4°C 65.4°F18.6°C 89% 6.9 mph NE11.1 kmh NE 18.3 mph29.5 kmh 30.11 in1019.6 mb 0.00 in0.0 mm 0.00 in/hr0.0 mm/hr 0.00 in0.0 mm
09:05 AM 68.2°F20.1°C 65.2°F18.4°C 90% 10.7 mph NNE17.2 kmh NNE 19.0 mph30.6 kmh 30.11 in1019.6 mb 0.00 in0.0 mm 0.00 in/hr0.0 mm/hr 0.00 in0.0 mm
09:00 AM 67.8°F19.9°C 64.8°F18.2°C 90% 10.7 mph NE17.2 kmh NE 19.0 mph30.6 kmh 30.11 in1019.6 mb 0.00 in0.0 mm 0.00 in/hr0.0 mm/hr 0.00 in0.0 mm
08:55 AM 67.5°F19.7°C 64.8°F18.2°C 91% 10.7 mph NE17.2 kmh NE 15.9 mph25.6 kmh 30.11 in1019.6 mb 0.00 in0.0 mm 0.00 in/hr0.0 mm/hr 0.00 in0.0 mm
08:50 AM 67.3°F19.6°C 64.6°F18.1°C 91% 10.7 mph NE17.2 kmh NE 15.9 mph25.6 kmh 30.11 in1019.6 mb 0.00 in0.0 mm 0.00 in/hr0.0 mm/hr 0.00 in0.0 mm
08:45 AM 67.1°F19.5°C 64.7°F18.2°C 92% 9.8 mph NE15.8 kmh NE 15.9 mph25.6 kmh 30.11 in1019.6 mb 0.00 in0.0 mm 0.00 in/hr0.0 mm/hr 0.00 in0.0 mm
08:40 AM 66.9°F19.4°C 64.5°F18.1°C 92% 7.6 mph NNE12.2 kmh NNE 15.9 mph25.6 kmh 30.12 in1020.0 mb 0.00 in0.0 mm 0.00 in/hr0.0 mm/hr 0.00 in0.0 mm
08:35 AM 66.9°F19.4°C 64.2°F17.9°C 91% 7.6 mph NNE12.2 kmh NNE 15.9 mph25.6 kmh 30.12 in1020.0 mb 0.00 in0.0 mm 0.00 in/hr0.0 mm/hr 0.00 in0.0 mm
08:30 AM 66.7°F19.3°C 64.1°F17.8°C 91% 8.3 mph NE13.4 kmh NE 15.2 mph24.5 kmh 30.11 in1019.6 mb 0.00 in0.0 mm 0.00 in/hr0.0 mm/hr 0.00 in0.0 mm
08:25 AM 66.7°F19.3°C 64.1°F17.8°C 91% 8.3 mph NE13.4 kmh NE 15.2 mph24.5 kmh 30.12 in1020.0 mb 0.00 in0.0 mm 0.00 in/hr0.0 mm/hr 0.00 in0.0 mm
08:20 AM 66.6°F19.2°C 64.2°F17.9°C 92% 9.2 mph NE14.8 kmh NE 13.6 mph21.9 kmh 30.12 in1020.0 mb 0.00 in0.0 mm 0.00 in/hr0.0 mm/hr 0.00 in0.0 mm
08:15 AM 66.4°F19.1°C 64.0°F17.8°C 92% 9.2 mph NE14.8 kmh NE 14.5 mph23.3 kmh 30.11 in1019.6 mb 0.00 in0.0 mm 0.00 in/hr0.0 mm/hr 0.00 in0.0 mm
08:10 AM 66.2°F19.0°C 63.8°F17.7°C 92% 6.9 mph NE11.1 kmh NE 14.5 mph23.3 kmh 30.11 in1019.6 mb 0.00 in0.0 mm 0.00 in/hr0.0 mm/hr 0.00 in0.0 mm
08:05 AM 65.7°F18.7°C 63.3°F17.4°C 92% 5.4 mph NE8.7 kmh NE 15.2 mph24.5 kmh 30.10 in1019.3 mb 0.00 in0.0 mm 0.00 in/hr0.0 mm/hr 0.00 in0.0 mm
08:00 AM 65.8°F18.8°C 63.5°F17.5°C 92% 7.6 mph NE12.2 kmh NE 15.2 mph24.5 kmh 30.11 in1019.6 mb 0.00 in0.0 mm 0.00 in/hr0.0 mm/hr 0.00 in0.0 mm
07:55 AM 65.7°F18.7°C 63.3°F17.4°C 92% 7.6 mph NE12.2 kmh NE 13.0 mph20.9 kmh 30.11 in1019.6 mb 0.00 in0.0 mm 0.00 in/hr0.0 mm/hr 0.00 in0.0 mm
07:50 AM 65.3°F18.5°C 62.9°F17.2°C 92% 8.3 mph NE13.4 kmh NE 13.0 mph20.9 kmh 30.10 in1019.3 mb 0.00 in0.0 mm 0.00 in/hr0.0 mm/hr 0.00 in0.0 mm
07:45 AM 65.3°F18.5°C 62.9°F17.2°C 92% 1.6 mph NE2.6 kmh NE 13.0 mph20.9 kmh 30.11 in1019.6 mb 0.00 in0.0 mm 0.00 in/hr0.0 mm/hr 0.00 in0.0 mm
07:40 AM 65.3°F18.5°C 62.9°F17.2°C 92% 6.0 mph NE9.7 kmh NE 13.6 mph21.9 kmh 30.11 in1019.6 mb 0.00 in0.0 mm 0.00 in/hr0.0 mm/hr 0.00 in0.0 mm
07:35 AM 65.1°F18.4°C 62.8°F17.1°C 92% 7.6 mph NE12.2 kmh NE 13.6 mph21.9 kmh 30.11 in1019.6 mb 0.00 in0.0 mm 0.00 in/hr0.0 mm/hr 0.00 in0.0 mm
07:30 AM 64.9°F18.3°C 62.6°F17.0°C 92% 6.9 mph NE11.1 kmh NE 15.9 mph25.6 kmh 30.10 in1019.3 mb 0.00 in0.0 mm 0.00 in/hr0.0 mm/hr 0.00 in0.0 mm
07:25 AM 64.8°F18.2°C 62.4°F16.9°C 92% 6.9 mph NE11.1 kmh NE 15.9 mph25.6 kmh 30.09 in1019.0 mb 0.00 in0.0 mm 0.00 in/hr0.0 mm/hr 0.00 in0.0 mm
07:20 AM 64.8°F18.2°C 62.4°F16.9°C 92% 9.2 mph NE14.8 kmh NE 15.2 mph24.5 kmh 30.09 in1019.0 mb 0.00 in0.0 mm 0.00 in/hr0.0 mm/hr 0.00 in0.0 mm
07:15 AM 64.6°F18.1°C 62.2°F16.8°C 92% 9.8 mph NE15.8 kmh NE 15.9 mph25.6 kmh 30.09 in1019.0 mb 0.00 in0.0 mm 0.00 in/hr0.0 mm/hr 0.00 in0.0 mm
07:10 AM 64.6°F18.1°C 62.2°F16.8°C 92% 5.4 mph NE8.7 kmh NE 15.9 mph25.6 kmh 30.09 in1019.0 mb 0.00 in0.0 mm 0.00 in/hr0.0 mm/hr 0.00 in0.0 mm
07:05 AM 64.6°F18.1°C 61.9°F16.6°C 91% 9.2 mph NE14.8 kmh NE 15.9 mph25.6 kmh 30.10 in1019.3 mb 0.00 in0.0 mm 0.00 in/hr0.0 mm/hr 0.00 in0.0 mm
07:00 AM 64.4°F18.0°C 61.7°F16.5°C 91% 7.6 mph NNE12.2 kmh NNE 13.6 mph21.9 kmh 30.10 in1019.3 mb 0.00 in0.0 mm 0.00 in/hr0.0 mm/hr 0.00 in0.0 mm
06:55 AM 64.2°F17.9°C 61.6°F16.4°C 91% 8.3 mph N13.4 kmh N 13.0 mph20.9 kmh 30.09 in1019.0 mb 0.00 in0.0 mm 0.00 in/hr0.0 mm/hr 0.00 in0.0 mm
06:50 AM 64.2°F17.9°C 61.6°F16.4°C 91% 8.3 mph NNE13.4 kmh NNE 13.6 mph21.9 kmh 30.09 in1019.0 mb 0.00 in0.0 mm 0.00 in/hr0.0 mm/hr 0.00 in0.0 mm
06:45 AM 64.2°F17.9°C 61.6°F16.4°C 91% 8.3 mph NE13.4 kmh NE 16.8 mph27.0 kmh 30.09 in1019.0 mb 0.00 in0.0 mm 0.00 in/hr0.0 mm/hr 0.00 in0.0 mm
06:40 AM 64.0°F17.8°C 61.4°F16.3°C 91% 7.6 mph NE12.2 kmh NE 16.8 mph27.0 kmh 30.09 in1019.0 mb 0.00 in0.0 mm 0.00 in/hr0.0 mm/hr 0.00 in0.0 mm
06:35 AM 64.2°F17.9°C 61.2°F16.2°C 90% 11.4 mph NE18.3 kmh NE 16.8 mph27.0 kmh 30.09 in1019.0 mb 0.00 in0.0 mm 0.00 in/hr0.0 mm/hr 0.00 in0.0 mm
06:30 AM 64.2°F17.9°C 61.2°F16.2°C 90% 6.0 mph NE9.7 kmh NE 15.9 mph25.6 kmh 30.09 in1019.0 mb 0.00 in0.0 mm 0.00 in/hr0.0 mm/hr 0.00 in0.0 mm
06:25 AM 64.2°F17.9°C 60.9°F16.1°C 89% 3.8 mph NNE6.1 kmh NNE 13.0 mph20.9 kmh 30.08 in1018.6 mb 0.00 in0.0 mm 0.00 in/hr0.0 mm/hr 0.00 in0.0 mm
06:20 AM 64.2°F17.9°C 60.9°F16.1°C 89% 5.4 mph NNE8.7 kmh NNE 15.2 mph24.5 kmh 30.09 in1019.0 mb 0.00 in0.0 mm 0.00 in/hr0.0 mm/hr 0.00 in0.0 mm
06:15 AM 64.2°F17.9°C 60.9°F16.1°C 89% 8.3 mph NNE13.4 kmh NNE 15.2 mph24.5 kmh 30.09 in1019.0 mb 0.00 in0.0 mm 0.00 in/hr0.0 mm/hr 0.00 in0.0 mm
06:10 AM 64.2°F17.9°C 60.9°F16.1°C 89% 7.6 mph NE12.2 kmh NE 17.4 mph28.0 kmh 30.09 in1019.0 mb 0.00 in0.0 mm 0.00 in/hr0.0 mm/hr 0.00 in0.0 mm
06:05 AM 64.2°F17.9°C 60.6°F15.9°C 88% 9.2 mph NE14.8 kmh NE 17.4 mph28.0 kmh 30.09 in1019.0 mb 0.00 in0.0 mm 0.00 in/hr0.0 mm/hr 0.00 in0.0 mm
06:00 AM 64.4°F18.0°C 60.8°F16.0°C 88% 9.8 mph N15.8 kmh N 17.4 mph28.0 kmh 30.08 in1018.6 mb 0.00 in0.0 mm 0.00 in/hr0.0 mm/hr 0.00 in0.0 mm
05:55 AM 64.4°F18.0°C 60.8°F16.0°C 88% 6.0 mph N9.7 kmh N 15.2 mph24.5 kmh 30.09 in1019.0 mb 0.00 in0.0 mm 0.00 in/hr0.0 mm/hr 0.00 in0.0 mm
05:50 AM 64.4°F18.0°C 60.8°F16.0°C 88% 6.9 mph NNE11.1 kmh NNE 15.9 mph25.6 kmh 30.08 in1018.6 mb 0.00 in0.0 mm 0.00 in/hr0.0 mm/hr 0.00 in0.0 mm
05:45 AM 64.6°F18.1°C 61.0°F16.1°C 88% 11.4 mph NNE18.3 kmh NNE 15.9 mph25.6 kmh 30.07 in1018.3 mb 0.00 in0.0 mm 0.00 in/hr0.0 mm/hr 0.00 in0.0 mm
05:40 AM 64.6°F18.1°C 61.0°F16.1°C 88% 7.6 mph NNE12.2 kmh NNE 15.9 mph25.6 kmh 30.07 in1018.3 mb 0.00 in0.0 mm 0.00 in/hr0.0 mm/hr 0.00 in0.0 mm
05:35 AM 64.8°F18.2°C 61.1°F16.2°C 88% 3.8 mph NNE6.1 kmh NNE 14.5 mph23.3 kmh 30.07 in1018.3 mb 0.00 in0.0 mm 0.00 in/hr0.0 mm/hr 0.00 in0.0 mm
05:30 AM 64.8°F18.2°C 60.8°F16.0°C 87% 6.0 mph NE9.7 kmh NE 14.5 mph23.3 kmh 30.07 in1018.3 mb 0.00 in0.0 mm 0.00 in/hr0.0 mm/hr 0.00 in0.0 mm
05:25 AM 64.9°F18.3°C 61.0°F16.1°C 87% 6.9 mph NE11.1 kmh NE 16.8 mph27.0 kmh 30.07 in1018.3 mb 0.00 in0.0 mm 0.00 in/hr0.0 mm/hr 0.00 in0.0 mm
05:20 AM 64.9°F18.3°C 61.3°F16.3°C 88% 8.3 mph NNE13.4 kmh NNE 16.8 mph27.0 kmh 30.07 in1018.3 mb 0.00 in0.0 mm 0.00 in/hr0.0 mm/hr 0.00 in0.0 mm
05:15 AM 64.9°F18.3°C 61.3°F16.3°C 88% 8.3 mph N13.4 kmh N 14.5 mph23.3 kmh 30.08 in1018.6 mb 0.00 in0.0 mm 0.00 in/hr0.0 mm/hr 0.00 in0.0 mm
05:10 AM 64.9°F18.3°C 61.3°F16.3°C 88% 9.2 mph N14.8 kmh N 14.5 mph23.3 kmh 30.08 in1018.6 mb 0.00 in0.0 mm 0.00 in/hr0.0 mm/hr 0.00 in0.0 mm
05:05 AM 64.9°F18.3°C 61.3°F16.3°C 88% 7.6 mph NNE12.2 kmh NNE 13.0 mph20.9 kmh 30.07 in1018.3 mb 0.00 in0.0 mm 0.00 in/hr0.0 mm/hr 0.00 in0.0 mm
05:00 AM 64.9°F18.3°C 61.3°F16.3°C 88% 7.6 mph NE12.2 kmh NE 15.9 mph25.6 kmh 30.07 in1018.3 mb 0.00 in0.0 mm 0.00 in/hr0.0 mm/hr 0.00 in0.0 mm
04:55 AM 64.8°F18.2°C 61.1°F16.2°C 88% 6.0 mph NE9.7 kmh NE 19.0 mph30.6 kmh 30.07 in1018.3 mb 0.00 in0.0 mm 0.00 in/hr0.0 mm/hr 0.00 in0.0 mm
04:50 AM 64.6°F18.1°C 61.0°F16.1°C 88% 10.7 mph NE17.2 kmh NE 19.0 mph30.6 kmh 30.07 in1018.3 mb 0.00 in0.0 mm 0.00 in/hr0.0 mm/hr 0.00 in0.0 mm
04:45 AM 64.4°F18.0°C 60.8°F16.0°C 88% 11.4 mph NE18.3 kmh NE 15.9 mph25.6 kmh 30.06 in1017.9 mb 0.00 in0.0 mm 0.00 in/hr0.0 mm/hr 0.00 in0.0 mm
04:40 AM 64.4°F18.0°C 61.1°F16.2°C 89% 6.9 mph NE11.1 kmh NE 15.2 mph24.5 kmh 30.06 in1017.9 mb 0.00 in0.0 mm 0.00 in/hr0.0 mm/hr 0.00 in0.0 mm
04:35 AM 64.2°F17.9°C 60.9°F16.1°C 89% 8.3 mph NE13.4 kmh NE 15.2 mph24.5 kmh 30.06 in1017.9 mb 0.00 in0.0 mm 0.00 in/hr0.0 mm/hr 0.00 in0.0 mm
04:30 AM 64.2°F17.9°C 60.9°F16.1°C 89% 9.2 mph NE14.8 kmh NE 16.8 mph27.0 kmh 30.06 in1017.9 mb 0.00 in0.0 mm 0.00 in/hr0.0 mm/hr 0.00 in0.0 mm
04:25 AM 64.4°F18.0°C 61.1°F16.2°C 89% 6.9 mph NE11.1 kmh NE 16.8 mph27.0 kmh 30.06 in1017.9 mb 0.00 in0.0 mm 0.00 in/hr0.0 mm/hr 0.00 in0.0 mm
04:20 AM 64.2°F17.9°C 60.9°F16.1°C 89% 9.2 mph NE14.8 kmh NE 15.2 mph24.5 kmh 30.06 in1017.9 mb 0.00 in0.0 mm 0.00 in/hr0.0 mm/hr 0.00 in0.0 mm
04:15 AM 64.2°F17.9°C 60.9°F16.1°C 89% 9.8 mph NE15.8 kmh NE 15.2 mph24.5 kmh 30.06 in1017.9 mb 0.00 in0.0 mm 0.00 in/hr0.0 mm/hr 0.00 in0.0 mm
04:10 AM 64.2°F17.9°C 61.2°F16.2°C 90% 8.3 mph NE13.4 kmh NE 12.1 mph19.5 kmh 30.06 in1017.9 mb 0.00 in0.0 mm 0.00 in/hr0.0 mm/hr 0.00 in0.0 mm
04:05 AM 64.0°F17.8°C 61.1°F16.2°C 90% 4.5 mph NE7.2 kmh NE 13.6 mph21.9 kmh 30.06 in1017.9 mb 0.00 in0.0 mm 0.00 in/hr0.0 mm/hr 0.00 in0.0 mm
04:00 AM 64.0°F17.8°C 61.1°F16.2°C 90% 6.9 mph NE11.1 kmh NE 15.9 mph25.6 kmh 30.06 in1017.9 mb 0.00 in0.0 mm 0.00 in/hr0.0 mm/hr 0.00 in0.0 mm
03:55 AM 64.0°F17.8°C 61.1°F16.2°C 90% 5.4 mph NNE8.7 kmh NNE 18.3 mph29.5 kmh 30.07 in1018.3 mb 0.00 in0.0 mm 0.00 in/hr0.0 mm/hr 0.00 in0.0 mm
03:50 AM 63.9°F17.7°C 61.2°F16.2°C 91% 9.2 mph NE14.8 kmh NE 18.3 mph29.5 kmh 30.06 in1017.9 mb 0.00 in0.0 mm 0.00 in/hr0.0 mm/hr 0.00 in0.0 mm
03:45 AM 63.7°F17.6°C 61.0°F16.1°C 91% 9.2 mph NE14.8 kmh NE 16.8 mph27.0 kmh 30.06 in1017.9 mb 0.00 in0.0 mm 0.00 in/hr0.0 mm/hr 0.00 in0.0 mm
03:40 AM 63.7°F17.6°C 61.0°F16.1°C 91% 9.8 mph NE15.8 kmh NE 16.8 mph27.0 kmh 30.07 in1018.3 mb 0.00 in0.0 mm 0.00 in/hr0.0 mm/hr 0.00 in0.0 mm
03:35 AM 63.7°F17.6°C 60.7°F15.9°C 90% 8.3 mph NE13.4 kmh NE 15.9 mph25.6 kmh 30.06 in1017.9 mb 0.00 in0.0 mm 0.00 in/hr0.0 mm/hr 0.00 in0.0 mm
03:30 AM 63.7°F17.6°C 60.7°F15.9°C 90% 9.8 mph NE15.8 kmh NE 16.8 mph27.0 kmh 30.06 in1017.9 mb 0.00 in0.0 mm 0.00 in/hr0.0 mm/hr 0.00 in0.0 mm
03:25 AM 63.9°F17.7°C 61.2°F16.2°C 91% 9.2 mph NE14.8 kmh NE 16.8 mph27.0 kmh 30.06 in1017.9 mb 0.00 in0.0 mm 0.00 in/hr0.0 mm/hr 0.00 in0.0 mm
03:20 AM 63.9°F17.7°C 61.2°F16.2°C 91% 8.3 mph NE13.4 kmh NE 15.2 mph24.5 kmh 30.07 in1018.3 mb 0.00 in0.0 mm 0.00 in/hr0.0 mm/hr 0.00 in0.0 mm
03:15 AM 63.9°F17.7°C 61.2°F16.2°C 91% 7.6 mph NE12.2 kmh NE 15.2 mph24.5 kmh 30.07 in1018.3 mb 0.00 in0.0 mm 0.00 in/hr0.0 mm/hr 0.00 in0.0 mm
03:10 AM 63.9°F17.7°C 61.2°F16.2°C 91% 8.3 mph NE13.4 kmh NE 16.8 mph27.0 kmh 30.07 in1018.3 mb 0.00 in0.0 mm 0.00 in/hr0.0 mm/hr 0.00 in0.0 mm
03:05 AM 63.9°F17.7°C 61.2°F16.2°C 91% 9.2 mph NE14.8 kmh NE 16.8 mph27.0 kmh 30.07 in1018.3 mb 0.00 in0.0 mm 0.00 in/hr0.0 mm/hr 0.00 in0.0 mm
03:00 AM 63.9°F17.7°C 61.2°F16.2°C 91% 8.3 mph NE13.4 kmh NE 16.8 mph27.0 kmh 30.07 in1018.3 mb 0.00 in0.0 mm 0.00 in/hr0.0 mm/hr 0.00 in0.0 mm
02:55 AM 63.9°F17.7°C 61.2°F16.2°C 91% 6.9 mph NE11.1 kmh NE 15.9 mph25.6 kmh 30.07 in1018.3 mb 0.00 in0.0 mm 0.00 in/hr0.0 mm/hr 0.00 in0.0 mm
02:50 AM 64.0°F17.8°C 61.4°F16.3°C 91% 5.4 mph NE8.7 kmh NE 15.9 mph25.6 kmh 30.08 in1018.6 mb 0.00 in0.0 mm 0.00 in/hr0.0 mm/hr 0.00 in0.0 mm
02:45 AM 64.0°F17.8°C 61.4°F16.3°C 91% 9.8 mph NE15.8 kmh NE 15.9 mph25.6 kmh 30.07 in1018.3 mb 0.00 in0.0 mm 0.00 in/hr0.0 mm/hr 0.00 in0.0 mm
02:40 AM 64.0°F17.8°C 61.4°F16.3°C 91% 10.7 mph NE17.2 kmh NE 16.8 mph27.0 kmh 30.07 in1018.3 mb 0.00 in0.0 mm 0.00 in/hr0.0 mm/hr 0.00 in0.0 mm
02:35 AM 64.0°F17.8°C 61.4°F16.3°C 91% 9.8 mph NE15.8 kmh NE 16.8 mph27.0 kmh 30.08 in1018.6 mb 0.00 in0.0 mm 0.00 in/hr0.0 mm/hr 0.00 in0.0 mm
02:30 AM 64.0°F17.8°C 61.4°F16.3°C 91% 6.0 mph NE9.7 kmh NE 19.0 mph30.6 kmh 30.08 in1018.6 mb 0.00 in0.0 mm 0.00 in/hr0.0 mm/hr 0.00 in0.0 mm
02:25 AM 64.2°F17.9°C 61.6°F16.4°C 91% 5.4 mph NE8.7 kmh NE 19.0 mph30.6 kmh 30.08 in1018.6 mb 0.00 in0.0 mm 0.00 in/hr0.0 mm/hr 0.00 in0.0 mm
02:20 AM 64.0°F17.8°C 61.7°F16.5°C 92% 6.0 mph NE9.7 kmh NE 16.8 mph27.0 kmh 30.08 in1018.6 mb 0.00 in0.0 mm 0.00 in/hr0.0 mm/hr 0.00 in0.0 mm
02:15 AM 63.9°F17.7°C 61.5°F16.4°C 92% 10.7 mph NE17.2 kmh NE 16.8 mph27.0 kmh 30.09 in1019.0 mb 0.00 in0.0 mm 0.00 in/hr0.0 mm/hr 0.00 in0.0 mm
02:10 AM 63.9°F17.7°C 61.5°F16.4°C 92% 9.2 mph NE14.8 kmh NE 19.0 mph30.6 kmh 30.08 in1018.6 mb 0.00 in0.0 mm 0.00 in/hr0.0 mm/hr 0.00 in0.0 mm
02:05 AM 63.9°F17.7°C 61.5°F16.4°C 92% 13.0 mph NE20.9 kmh NE 19.0 mph30.6 kmh 30.08 in1018.6 mb 0.00 in0.0 mm 0.00 in/hr0.0 mm/hr 0.00 in0.0 mm
02:00 AM 63.9°F17.7°C 61.5°F16.4°C 92% 8.3 mph NE13.4 kmh NE 16.8 mph27.0 kmh 30.09 in1019.0 mb 0.00 in0.0 mm 0.00 in/hr0.0 mm/hr 0.00 in0.0 mm
01:55 AM 63.9°F17.7°C 61.5°F16.4°C 92% 10.7 mph NE17.2 kmh NE 16.8 mph27.0 kmh 30.10 in1019.3 mb 0.00 in0.0 mm 0.00 in/hr0.0 mm/hr 0.00 in0.0 mm
01:50 AM 63.9°F17.7°C 61.5°F16.4°C 92% 9.8 mph NNE15.8 kmh NNE 16.8 mph27.0 kmh 30.10 in1019.3 mb 0.00 in0.0 mm 0.00 in/hr0.0 mm/hr 0.00 in0.0 mm
01:45 AM 64.0°F17.8°C 61.4°F16.3°C 91% 9.2 mph NE14.8 kmh NE 16.8 mph27.0 kmh 30.10 in1019.3 mb 0.00 in0.0 mm 0.00 in/hr0.0 mm/hr 0.00 in0.0 mm
01:40 AM 64.0°F17.8°C 61.4°F16.3°C 91% 10.7 mph NE17.2 kmh NE 16.8 mph27.0 kmh 30.10 in1019.3 mb 0.00 in0.0 mm 0.00 in/hr0.0 mm/hr 0.00 in0.0 mm
01:35 AM 64.0°F17.8°C 61.4°F16.3°C 91% 9.2 mph NE14.8 kmh NE 18.3 mph29.5 kmh 30.10 in1019.3 mb 0.00 in0.0 mm 0.00 in/hr0.0 mm/hr 0.00 in0.0 mm
01:30 AM 64.0°F17.8°C 61.4°F16.3°C 91% 9.8 mph NE15.8 kmh NE 18.3 mph29.5 kmh 30.10 in1019.3 mb 0.00 in0.0 mm 0.00 in/hr0.0 mm/hr 0.00 in0.0 mm
01:25 AM 64.4°F18.0°C 61.4°F16.3°C 90% 9.2 mph NE14.8 kmh NE 20.6 mph33.2 kmh 30.10 in1019.3 mb 0.00 in0.0 mm 0.00 in/hr0.0 mm/hr 0.00 in0.0 mm
01:20 AM 64.4°F18.0°C 61.4°F16.3°C 90% 13.0 mph NE20.9 kmh NE 20.6 mph33.2 kmh 30.10 in1019.3 mb 0.00 in0.0 mm 0.00 in/hr0.0 mm/hr 0.00 in0.0 mm
01:15 AM 64.4°F18.0°C 61.4°F16.3°C 90% 10.7 mph NE17.2 kmh NE 19.0 mph30.6 kmh 30.11 in1019.6 mb 0.00 in0.0 mm 0.00 in/hr0.0 mm/hr 0.00 in0.0 mm
01:10 AM 64.4°F18.0°C 61.4°F16.3°C 90% 8.3 mph NE13.4 kmh NE 18.3 mph29.5 kmh 30.11 in1019.6 mb 0.00 in0.0 mm 0.00 in/hr0.0 mm/hr 0.00 in0.0 mm
01:05 AM 64.4°F18.0°C 61.4°F16.3°C 90% 9.2 mph NE14.8 kmh NE 19.0 mph30.6 kmh 30.11 in1019.6 mb 0.00 in0.0 mm 0.00 in/hr0.0 mm/hr 0.00 in0.0 mm
01:00 AM 64.4°F18.0°C 61.4°F16.3°C 90% 10.7 mph NE17.2 kmh NE 20.6 mph33.2 kmh 30.11 in1019.6 mb 0.00 in0.0 mm 0.00 in/hr0.0 mm/hr 0.00 in0.0 mm
12:55 AM 64.2°F17.9°C 61.2°F16.2°C 90% 11.4 mph NE18.3 kmh NE 20.6 mph33.2 kmh 30.11 in1019.6 mb 0.00 in0.0 mm 0.00 in/hr0.0 mm/hr 0.00 in0.0 mm
12:50 AM 64.2°F17.9°C 61.6°F16.4°C 91% 9.8 mph NNE15.8 kmh NNE 18.3 mph29.5 kmh 30.11 in1019.6 mb 0.00 in0.0 mm 0.00 in/hr0.0 mm/hr 0.00 in0.0 mm
12:45 AM 64.0°F17.8°C 61.1°F16.2°C 90% 7.6 mph NNE12.2 kmh NNE 17.4 mph28.0 kmh 30.11 in1019.6 mb 0.00 in0.0 mm 0.00 in/hr0.0 mm/hr 0.00 in0.0 mm
12:40 AM 64.0°F17.8°C 61.1°F16.2°C 90% 8.3 mph NNE13.4 kmh NNE 19.0 mph30.6 kmh 30.11 in1019.6 mb 0.00 in0.0 mm 0.00 in/hr0.0 mm/hr 0.00 in0.0 mm
12:35 AM 64.0°F17.8°C 61.1°F16.2°C 90% 12.1 mph NE19.5 kmh NE 19.0 mph30.6 kmh 30.11 in1019.6 mb 0.00 in0.0 mm 0.00 in/hr0.0 mm/hr 0.00 in0.0 mm
12:30 AM 64.2°F17.9°C 61.2°F16.2°C 90% 7.6 mph NE12.2 kmh NE 15.9 mph25.6 kmh 30.10 in1019.3 mb 0.00 in0.0 mm 0.00 in/hr0.0 mm/hr 0.00 in0.0 mm
12:25 AM 64.2°F17.9°C 60.9°F16.1°C 89% 10.7 mph NE17.2 kmh NE 15.9 mph25.6 kmh 30.11 in1019.6 mb 0.00 in0.0 mm 0.00 in/hr0.0 mm/hr 0.00 in0.0 mm
12:20 AM 64.4°F18.0°C 61.1°F16.2°C 89% 7.6 mph NE12.2 kmh NE 19.0 mph30.6 kmh 30.11 in1019.6 mb 0.00 in0.0 mm 0.00 in/hr0.0 mm/hr 0.00 in0.0 mm
12:15 AM 64.4°F18.0°C 60.8°F16.0°C 88% 5.4 mph NE8.7 kmh NE 19.7 mph31.7 kmh 30.11 in1019.6 mb 0.00 in0.0 mm 0.00 in/hr0.0 mm/hr 0.00 in0.0 mm
12:10 AM 64.6°F18.1°C 61.0°F16.1°C 88% 12.1 mph NNE19.5 kmh NNE 19.7 mph31.7 kmh 30.11 in1019.6 mb 0.00 in0.0 mm 0.00 in/hr0.0 mm/hr 0.00 in0.0 mm
12:05 AM 64.6°F18.1°C 60.6°F15.9°C 87% 8.3 mph NNE13.4 kmh NNE 19.0 mph30.6 kmh 30.11 in1019.6 mb 0.00 in0.0 mm 0.00 in/hr0.0 mm/hr 0.00 in0.0 mm
12:00 AM 64.8°F18.2°C 60.8°F16.0°C 87% 13.6 mph NE21.9 kmh NE 19.0 mph30.6 kmh 30.11 in1019.6 mb 0.00 in0.0 mm 0.00 in/hr0.0 mm/hr 0.00 in0.0 mm